Time;durP1;ratioP1;P1;durP2;ratioP2;P2;SDS_P1;SDS_P2;PMS_P1;PMS_P2;Temp;Humidity;BMP_temperature;BMP_pressure;BME280_temperature;BME280_humidity;BME280_pressure;Samples;Min_cycle;Max_cycle;Signal;HPM_P1;HPM_P2
2021/08/31 00:00:13;;;;;;;6.47;5.93;;;;;;;15.46;81.80;99147.39;254303;1102;114939;-65
2021/08/31 00:05:36;;;;;;;6.90;6.30;;;;;;;15.50;81.85;99143.07;254127;1102;115916;-64
2021/08/31 00:10:39;;;;;;;7.65;6.98;;;;;;;15.51;81.80;99150.05;254984;1101;115968;-66
2021/08/31 00:15:43;;;;;;;9.55;6.68;;;;;;;15.50;81.99;99140.38;254989;1102;116482;-66
2021/08/31 00:20:46;;;;;;;7.97;7.23;;;;;;;15.50;81.58;99146.56;254667;1104;115634;-66
2021/08/31 00:25:52;;;;;;;8.87;7.97;;;;;;;15.52;81.69;99150.84;254673;1103;119005;-66
2021/08/31 00:30:55;;;;;;;7.75;6.95;;;;;;;15.55;81.75;99144.91;255185;1104;115518;-66
2021/08/31 00:36:03;;;;;;;7.45;6.75;;;;;;;15.54;81.93;99144.11;254418;1096;114622;-66
2021/08/31 00:41:07;;;;;;;7.60;6.90;;;;;;;15.56;82.06;99141.15;257213;1103;115313;-66
2021/08/31 00:46:12;;;;;;;7.45;6.75;;;;;;;15.57;81.99;99137.41;255437;1102;116578;-64
2021/08/31 00:51:17;;;;;;;7.33;6.73;;;;;;;15.57;81.64;99132.84;254741;1104;116603;-65
2021/08/31 00:56:21;;;;;;;7.07;6.37;;;;;;;15.57;81.60;99132.04;257155;1101;115707;-66
2021/08/31 01:01:25;;;;;;;7.77;7.00;;;;;;;15.60;81.73;99131.45;256107;1104;115884;-66
2021/08/31 01:06:28;;;;;;;9.23;5.58;;;;;;;15.64;82.15;99132.49;255554;1104;115616;-65
2021/08/31 01:11:31;;;;;;;6.08;5.50;;;;;;;15.65;81.82;99136.78;254354;1097;116900;-66
2021/08/31 01:16:36;;;;;;;9.25;5.33;;;;;;;15.65;81.58;99139.47;256403;1101;115648;-65
2021/08/31 01:21:39;;;;;;;5.53;4.98;;;;;;;15.63;81.59;99137.06;254534;1104;115770;-64
2021/08/31 01:26:43;;;;;;;5.25;4.60;;;;;;;15.61;81.58;99133.05;255577;1102;115444;-65
2021/08/31 01:31:48;;;;;;;5.75;5.25;;;;;;;15.62;81.76;99124.71;254745;1101;115334;-64
2021/08/31 01:36:52;;;;;;;4.45;4.15;;;;;;;15.61;81.83;99116.94;254218;1102;115364;-66
2021/08/31 01:41:54;;;;;;;3.98;3.58;;;;;;;15.61;81.71;99111.56;254401;1102;115459;-67
2021/08/31 01:46:58;;;;;;;2.47;2.27;;;;;;;15.62;81.97;99124.71;255142;1101;115691;-65
2021/08/31 01:52:01;;;;;;;3.03;2.30;;;;;;;15.61;81.72;99115.05;254768;1102;116610;-66
2021/08/31 01:57:04;;;;;;;6.08;2.53;;;;;;;15.62;82.03;99102.41;254402;1102;115862;-65
2021/08/31 02:02:08;;;;;;;1.95;1.85;;;;;;;15.61;82.04;99098.92;254420;1101;115644;-66
2021/08/31 02:07:11;;;;;;;3.18;1.70;;;;;;;15.59;81.76;99095.75;254150;1102;115980;-66
2021/08/31 02:12:14;;;;;;;3.10;2.90;;;;;;;15.54;81.82;99079.64;254264;1097;116136;-65
2021/08/31 02:17:17;;;;;;;2.98;2.53;;;;;;;15.48;82.15;99089.63;254155;1103;116903;-66
2021/08/31 02:22:20;;;;;;;5.45;3.65;;;;;;;15.45;81.93;99094.76;254211;1096;116376;-65
2021/08/31 02:27:23;;;;;;;4.10;3.70;;;;;;;15.44;82.20;99090.47;254211;1102;116239;-66
2021/08/31 02:32:25;;;;;;;4.78;4.30;;;;;;;15.41;82.42;99082.98;254430;1101;116073;-65
2021/08/31 02:37:28;;;;;;;5.33;4.93;;;;;;;15.42;82.40;99080.01;255129;1102;116470;-65
2021/08/31 02:42:31;;;;;;;4.93;4.53;;;;;;;15.44;82.58;99080.53;256702;1101;116009;-68
2021/08/31 02:47:33;;;;;;;6.63;4.33;;;;;;;15.48;82.63;99078.08;256369;1101;115562;-65
2021/08/31 02:52:36;;;;;;;4.60;4.20;;;;;;;15.44;82.57;99075.16;255509;1101;115725;-65
2021/08/31 02:57:40;;;;;;;5.65;3.60;;;;;;;15.45;82.41;99076.77;257208;1101;115042;-65
2021/08/31 03:02:46;;;;;;;6.90;4.87;;;;;;;15.46;82.54;99072.99;255893;1101;115367;-67
2021/08/31 03:07:49;;;;;;;4.53;4.13;;;;;;;15.47;82.72;99079.16;255222;1101;115019;-66
2021/08/31 03:12:52;;;;;;;8.95;5.43;;;;;;;15.50;82.77;99084.78;257246;1101;115647;-67
2021/08/31 03:17:54;;;;;;;5.03;4.40;;;;;;;15.55;82.60;99078.56;254347;1101;115698;-68
2021/08/31 03:23:01;;;;;;;4.55;3.93;;;;;;;15.61;82.72;99073.95;254262;1101;115314;-66
2021/08/31 03:28:03;;;;;;;5.58;3.73;;;;;;;15.60;82.56;99083.09;254480;1096;115882;-66
2021/08/31 03:33:06;;;;;;;3.03;2.83;;;;;;;15.59;82.59;99086.89;255678;1096;115410;-67
2021/08/31 03:38:08;;;;;;;3.88;3.50;;;;;;;15.61;82.76;99090.87;255200;1104;118217;-66
2021/08/31 03:43:11;;;;;;;6.03;4.10;;;;;;;15.63;82.71;99090.59;254389;1096;115764;-67
2021/08/31 03:48:17;;;;;;;3.55;3.10;;;;;;;15.61;82.82;99088.18;254233;1104;114767;-67
2021/08/31 03:53:20;;;;;;;3.88;3.33;;;;;;;15.60;82.47;99089.27;254383;1104;115320;-67
2021/08/31 03:58:22;;;;;;;5.20;3.45;;;;;;;15.60;82.88;99093.84;254177;1101;116718;-66
2021/08/31 04:03:25;;;;;;;4.47;3.50;;;;;;;15.63;82.65;99099.45;254431;1097;115447;-67
2021/08/31 04:08:29;;;;;;;4.53;4.13;;;;;;;15.63;82.46;99102.13;254488;1102;115021;-66
2021/08/31 04:13:32;;;;;;;4.63;4.05;;;;;;;15.63;83.10;99104.82;254013;1096;115524;-67
2021/08/31 04:18:34;;;;;;;7.38;6.58;;;;;;;15.66;82.80;99103.45;254278;1101;115726;-63
2021/08/31 04:23:47;;;;;;;7.00;6.33;;;;;;;15.67;83.05;99095.11;254176;1103;115423;-65
2021/08/31 04:28:50;;;;;;;6.88;5.75;;;;;;;15.68;82.58;99099.41;254892;1102;115284;-67
2021/08/31 04:33:56;;;;;;;7.73;5.55;;;;;;;15.69;82.41;99098.32;254331;1101;115452;-66
2021/08/31 04:38:59;;;;;;;;;;;;;;;15.71;82.89;99100.73;254980;1101;115571;-66
2021/08/31 04:44:03;;;;;;;6.00;5.40;;;;;;;15.74;83.17;99106.34;256227;1101;103685;-66
2021/08/31 04:49:06;;;;;;;6.08;5.30;;;;;;;15.71;82.76;99109.59;254959;1101;115509;-65
2021/08/31 04:54:09;;;;;;;5.98;5.43;;;;;;;15.71;82.69;99112.28;256642;1101;115316;-66
2021/08/31 04:59:12;;;;;;;6.03;5.53;;;;;;;15.78;82.75;99112.75;255492;1102;115570;-68
2021/08/31 05:04:15;;;;;;;4.88;3.85;;;;;;;15.81;83.10;99112.19;257306;1101;114999;-66
2021/08/31 05:09:19;;;;;;;6.10;4.08;;;;;;;15.79;82.81;99110.86;254996;1101;116048;-65
2021/08/31 05:14:22;;;;;;;5.20;4.70;;;;;;;15.80;82.61;99107.90;257036;1101;115825;-66
2021/08/31 05:19:26;;;;;;;6.07;4.40;;;;;;;15.87;83.12;99117.52;254883;1101;115778;-66
2021/08/31 05:24:29;;;;;;;5.00;4.53;;;;;;;15.87;82.76;99120.20;254313;1101;116532;-66
2021/08/31 05:29:32;;;;;;;5.13;3.73;;;;;;;15.86;82.63;99116.72;254297;1101;114801;-67
2021/08/31 05:34:34;;;;;;;5.13;4.73;;;;;;;15.87;83.09;99125.58;254409;1101;115875;-65
2021/08/31 05:39:38;;;;;;;6.23;4.30;;;;;;;15.85;82.64;99117.00;254102;1097;116135;-66
2021/08/31 05:44:41;;;;;;;5.65;3.88;;;;;;;15.88;83.15;99119.13;254358;1103;115921;-66
2021/08/31 05:49:44;;;;;;;3.75;3.45;;;;;;;15.89;83.05;99124.22;254884;1097;115870;-67
2021/08/31 05:54:48;;;;;;;3.25;3.05;;;;;;;15.93;83.04;99119.05;255170;1101;115838;-68
2021/08/31 05:59:51;;;;;;;3.80;3.50;;;;;;;15.97;82.94;99115.50;254818;1104;115342;-66
2021/08/31 06:04:55;;;;;;;2.78;2.58;;;;;;;16.05;82.86;99122.16;255092;1101;115810;-66
2021/08/31 06:09:59;;;;;;;3.70;3.40;;;;;;;16.10;82.99;99124.80;254353;1104;115882;-66
2021/08/31 06:15:03;;;;;;;2.87;2.67;;;;;;;16.16;82.88;99129.03;254369;1104;116010;-67
2021/08/31 06:20:07;;;;;;;2.37;2.17;;;;;;;16.24;83.08;99124.89;254416;1101;115447;-66
2021/08/31 06:25:10;;;;;;;2.60;2.40;;;;;;;16.35;83.20;99115.63;254401;1101;115073;-67
2021/08/31 06:30:14;;;;;;;2.73;2.53;;;;;;;16.47;83.02;99113.34;254461;1101;115281;-68
2021/08/31 06:35:22;;;;;;;2.05;1.85;;;;;;;16.47;82.60;99108.76;254140;1097;115915;-67
2021/08/31 06:40:26;;;;;;;1.98;1.83;;;;;;;16.47;83.04;99110.65;254306;1102;119431;-68
2021/08/31 06:45:29;;;;;;;7.17;2.30;;;;;;;16.52;82.78;99110.56;254447;1097;115540;-67
2021/08/31 06:50:32;;;;;;;2.40;2.18;;;;;;;16.57;82.71;99112.39;255341;1104;115379;-69
2021/08/31 06:55:36;;;;;;;1.60;1.50;;;;;;;16.61;82.54;99111.52;256309;1103;115459;-68
2021/08/31 07:00:39;;;;;;;4.20;2.33;;;;;;;16.70;82.47;99117.10;254853;1104;115516;-69
2021/08/31 07:05:45;;;;;;;2.90;2.28;;;;;;;16.89;82.59;99123.28;254175;1104;115759;-70
2021/08/31 07:10:47;;;;;;;2.15;1.95;;;;;;;17.00;82.54;99113.18;254725;1102;115716;-68
2021/08/31 07:15:50;;;;;;;2.23;1.60;;;;;;;16.97;82.34;99121.84;255075;1104;116370;-67
2021/08/31 07:20:53;;;;;;;1.48;1.38;;;;;;;16.99;82.18;99122.34;257055;1101;114765;-65
2021/08/31 07:25:57;;;;;;;1.30;1.20;;;;;;;16.98;81.95;99112.67;255328;1102;114912;-66
2021/08/31 07:31:00;;;;;;;1.43;1.33;;;;;;;16.90;81.99;99122.20;255138;1103;116399;-65
2021/08/31 07:36:03;;;;;;;3.13;2.00;;;;;;;16.80;82.06;99123.16;255963;1101;115611;-66
2021/08/31 07:41:06;;;;;;;1.68;1.58;;;;;;;16.78;82.57;99130.72;254613;1101;115822;-65
2021/08/31 07:46:08;;;;;;;1.55;1.38;;;;;;;16.69;81.95;99131.64;254034;1102;115431;-66
2021/08/31 07:51:12;;;;;;;2.00;1.45;;;;;;;16.72;82.17;99136.45;254464;1104;116487;-65
2021/08/31 07:56:15;;;;;;;1.50;1.40;;;;;;;16.70;82.14;99128.66;254062;1101;115696;-65
2021/08/31 08:01:18;;;;;;;1.15;1.15;;;;;;;16.69;82.16;99132.45;254933;1097;116151;-69
2021/08/31 08:06:21;;;;;;;1.27;0.70;;;;;;;16.73;82.19;99140.75;254401;1101;115719;-67
2021/08/31 08:11:24;;;;;;;0.98;0.98;;;;;;;16.72;82.32;99144.52;254816;1103;115510;-66
2021/08/31 08:16:27;;;;;;;1.40;1.30;;;;;;;16.69;82.17;99142.41;255324;1097;116019;-65
2021/08/31 08:21:30;;;;;;;0.95;0.95;;;;;;;16.66;82.06;99138.41;254866;1097;115245;-65
2021/08/31 08:26:33;;;;;;;1.50;1.40;;;;;;;16.62;82.14;99142.73;254935;1096;116382;-65
2021/08/31 08:31:37;;;;;;;1.00;1.00;;;;;;;16.64;82.31;99145.97;254107;1096;116127;-66
2021/08/31 08:36:39;;;;;;;1.20;1.20;;;;;;;16.67;82.29;99148.08;254134;1102;115442;-66
2021/08/31 08:41:42;;;;;;;0.95;0.95;;;;;;;16.90;82.68;99165.27;254275;1101;115406;-65
2021/08/31 08:46:47;;;;;;;1.43;1.43;;;;;;;17.22;82.07;99151.08;255771;1101;115233;-66
2021/08/31 08:51:52;;;;;;;1.60;1.50;;;;;;;17.92;82.25;99137.56;254450;1101;115818;-66
2021/08/31 08:56:56;;;;;;;0.95;0.95;;;;;;;18.54;81.85;99161.48;256371;1101;115873;-66
2021/08/31 09:01:58;;;;;;;1.53;1.43;;;;;;;18.71;80.92;99156.28;255720;1101;115330;-66
2021/08/31 09:07:15;;;;;;;1.48;1.38;;;;;;;18.73;80.34;99173.78;256102;1104;114906;-67
2021/08/31 09:12:32;;;;;;;1.55;1.48;;;;;;;18.81;80.56;99169.58;256692;1096;116727;-67
2021/08/31 09:17:34;;;;;;;;;;;;;;;18.84;80.37;99168.97;255812;1101;114583;-66
2021/08/31 09:22:36;;;;;;;4.48;2.75;;;;;;;19.00;80.23;99172.92;258003;1101;101941;-66
2021/08/31 09:27:42;;;;;;;2.60;2.40;;;;;;;19.55;80.39;99177.41;254397;1104;115267;-66
2021/08/31 09:33:16;;;;;;;2.50;2.40;;;;;;;20.16;80.15;99161.22;254455;1103;115290;-67
2021/08/31 09:38:21;;;;;;;2.83;2.28;;;;;;;20.48;78.76;99162.78;254072;1104;115383;-67
2021/08/31 09:43:25;;;;;;;3.53;3.33;;;;;;;20.55;78.29;99175.06;254698;1103;115157;-67
2021/08/31 09:48:27;;;;;;;2.37;2.00;;;;;;;20.24;77.65;99184.00;254405;1097;115705;-66
2021/08/31 09:53:30;;;;;;;2.25;2.15;;;;;;;19.73;76.73;99195.34;254133;1102;115259;-66
2021/08/31 09:58:38;;;;;;;2.80;2.60;;;;;;;19.29;76.89;99188.76;254138;1102;115888;-68
2021/08/31 10:03:41;;;;;;;2.90;2.70;;;;;;;19.26;77.64;99202.88;254268;1101;115584;-67
2021/08/31 10:08:44;;;;;;;2.65;2.45;;;;;;;19.30;77.56;99203.07;254234;1102;115101;-66
2021/08/31 10:13:47;;;;;;;2.48;2.38;;;;;;;19.35;77.67;99213.77;254154;1102;115421;-67
2021/08/31 10:18:53;;;;;;;2.20;2.10;;;;;;;19.23;77.17;99218.92;254628;1102;116295;-67
2021/08/31 10:23:58;;;;;;;2.08;1.98;;;;;;;19.08;76.89;99223.55;254734;1101;115108;-66
2021/08/31 10:29:16;;;;;;;2.68;2.48;;;;;;;19.13;77.36;99219.94;254171;1103;115293;-67
2021/08/31 10:34:30;;;;;;;3.53;3.23;;;;;;;19.46;77.25;99212.45;254157;1104;115452;-66
2021/08/31 10:39:49;;;;;;;3.33;2.53;;;;;;;19.83;77.41;99220.23;254073;1097;118216;-66
2021/08/31 10:44:56;;;;;;;2.90;2.70;;;;;;;19.96;76.64;99220.45;254200;1104;174806;-66
2021/08/31 10:49:58;;;;;;;2.05;1.95;;;;;;;20.06;76.19;99221.01;255164;1101;115586;-67
2021/08/31 10:55:01;;;;;;;1.45;1.35;;;;;;;19.96;76.13;99225.87;255218;1101;115591;-66
2021/08/31 11:00:24;;;;;;;0.90;0.90;;;;;;;19.76;75.81;99227.97;255001;1103;115154;-69
2021/08/31 11:05:29;;;;;;;1.33;1.23;;;;;;;19.78;75.93;99223.06;255465;1101;115176;-68
2021/08/31 11:10:35;;;;;;;1.35;1.25;;;;;;;20.00;75.85;99216.03;257351;1101;115650;-67
2021/08/31 11:15:38;;;;;;;1.00;1.00;;;;;;;20.30;75.39;99220.66;254727;1101;115477;-67
2021/08/31 11:20:42;;;;;;;1.05;0.93;;;;;;;20.53;74.74;99226.03;256176;1097;116205;-66
2021/08/31 11:25:47;;;;;;;1.03;1.03;;;;;;;20.73;74.42;99222.78;254092;1104;116454;-67
2021/08/31 11:31:12;;;;;;;3.90;1.30;;;;;;;20.66;74.14;99223.23;254320;1101;116746;-66
2021/08/31 11:36:17;;;;;;;1.23;1.13;;;;;;;20.63;74.65;99218.44;254741;1101;115515;-67
2021/08/31 11:41:23;;;;;;;1.35;1.28;;;;;;;20.58;73.47;99223.19;254036;1103;115305;-65
2021/08/31 11:46:30;;;;;;;5.45;1.50;;;;;;;20.57;73.36;99232.42;255003;1104;115791;-66
2021/08/31 11:51:33;;;;;;;2.53;1.78;;;;;;;20.55;73.63;99232.73;254162;1104;116089;-65
2021/08/31 11:56:37;;;;;;;2.10;1.10;;;;;;;20.43;73.68;99225.22;254279;1103;116645;-66
2021/08/31 12:01:41;;;;;;;1.40;1.30;;;;;;;20.29;73.19;99229.88;254286;1104;115611;-64
2021/08/31 12:06:47;;;;;;;2.76;1.10;;;;;;;20.14;73.38;99236.50;254150;1103;115291;-67
2021/08/31 12:11:51;;;;;;;1.30;1.20;;;;;;;19.99;73.28;99231.46;254407;1097;115193;-65
2021/08/31 12:16:54;;;;;;;1.40;1.13;;;;;;;19.87;73.71;99233.15;255026;1097;116053;-65
2021/08/31 12:22:14;;;;;;;0.80;0.80;;;;;;;19.63;73.12;99230.72;254783;1102;115359;-66
2021/08/31 12:27:17;;;;;;;0.73;0.73;;;;;;;19.45;73.33;99227.06;254222;1096;114993;-64
2021/08/31 12:32:26;;;;;;;1.05;0.80;;;;;;;19.45;73.54;99233.27;255281;1104;117569;-66
2021/08/31 12:37:35;;;;;;;1.23;1.07;;;;;;;19.42;74.02;99230.38;254201;1104;115677;-65
2021/08/31 12:42:39;;;;;;;1.48;0.78;;;;;;;19.35;73.80;99236.19;255388;1103;117176;-65
2021/08/31 12:47:57;;;;;;;1.63;1.20;;;;;;;19.15;73.74;99240.15;256663;1097;117463;-66
2021/08/31 12:53:08;;;;;;;1.05;0.80;;;;;;;18.87;73.49;99245.89;253994;1103;115678;-66
2021/08/31 12:58:31;;;;;;;0.43;0.43;;;;;;;18.51;73.66;99254.64;253912;1102;116807;-65
2021/08/31 13:03:35;;;;;;;0.60;0.25;;;;;;;18.25;74.33;99251.61;254741;1101;115295;-66
2021/08/31 13:08:41;;;;;;;0.93;0.33;;;;;;;18.00;74.45;99252.84;256829;1101;115956;-68
2021/08/31 13:13:44;;;;;;;0.85;0.70;;;;;;;17.77;74.96;99254.54;256048;1101;116548;-68
2021/08/31 13:18:54;;;;;;;0.20;0.20;;;;;;;17.67;75.15;99254.72;257179;1101;116834;-67
2021/08/31 13:23:57;;;;;;;2.90;0.50;;;;;;;17.52;75.31;99254.90;255920;1103;115912;-65
2021/08/31 13:29:02;;;;;;;0.30;0.30;;;;;;;17.45;75.57;99247.17;255164;1101;115848;-65
2021/08/31 13:34:08;;;;;;;0.93;0.75;;;;;;;17.37;76.25;99245.16;254121;1101;116701;-65
2021/08/31 13:39:12;;;;;;;;;;;;;;;17.24;76.26;99258.53;254211;1097;116008;-66
2021/08/31 13:44:15;;;;;;;0.80;0.58;;;;;;;17.08;76.42;99257.94;255018;1102;103876;-64
2021/08/31 13:49:18;;;;;;;1.00;0.30;;;;;;;16.99;76.62;99257.77;254112;1104;116338;-64
2021/08/31 13:54:21;;;;;;;0.45;0.45;;;;;;;16.86;76.99;99266.53;254288;1101;116550;-65
2021/08/31 13:59:24;;;;;;;0.30;0.30;;;;;;;16.69;76.84;99271.59;254452;1104;116176;-66
2021/08/31 14:04:27;;;;;;;3.18;0.60;;;;;;;16.51;77.18;99281.14;254818;1104;116189;-67
2021/08/31 14:09:30;;;;;;;0.53;0.50;;;;;;;16.36;77.45;99278.62;254338;1096;115701;-65
2021/08/31 14:14:33;;;;;;;0.58;0.58;;;;;;;16.22;77.31;99278.46;255635;1097;115395;-65
2021/08/31 14:19:38;;;;;;;0.80;0.38;;;;;;;16.08;78.34;99282.91;254492;1103;115740;-65
2021/08/31 14:24:41;;;;;;;0.40;0.40;;;;;;;16.03;77.98;99302.56;255188;1103;115650;-64
2021/08/31 14:29:46;;;;;;;1.08;0.45;;;;;;;15.99;78.19;99306.89;254331;1101;115234;-64
2021/08/31 14:34:56;;;;;;;0.40;0.40;;;;;;;15.95;78.54;99305.84;255296;1101;114749;-63
2021/08/31 14:39:59;;;;;;;0.48;0.48;;;;;;;16.00;78.68;99311.19;254977;1101;114878;-63
2021/08/31 14:45:04;;;;;;;0.70;0.63;;;;;;;16.10;78.84;99313.00;255280;1101;115409;-64
2021/08/31 14:50:10;;;;;;;2.37;0.70;;;;;;;16.13;79.01;99312.45;254220;1104;118501;-64
2021/08/31 14:55:13;;;;;;;1.40;0.78;;;;;;;16.14;78.80;99316.73;254914;1101;115686;-64
2021/08/31 15:00:16;;;;;;;0.70;0.70;;;;;;;16.14;78.90;99330.19;257136;1102;115641;-65
2021/08/31 15:05:19;;;;;;;3.60;1.08;;;;;;;16.14;79.04;99324.80;256672;1101;115364;-65
2021/08/31 15:10:23;;;;;;;1.30;0.80;;;;;;;16.18;78.88;99338.50;257253;1101;115610;-64
2021/08/31 15:15:26;;;;;;;0.60;0.60;;;;;;;16.26;78.83;99335.98;257102;1103;115513;-66
2021/08/31 15:20:29;;;;;;;0.80;0.80;;;;;;;16.30;79.02;99344.30;255971;1103;116069;-65
2021/08/31 15:25:31;;;;;;;0.58;0.55;;;;;;;16.37;78.85;99339.40;255080;1096;115486;-66
2021/08/31 15:30:34;;;;;;;0.90;0.60;;;;;;;16.47;78.93;99342.81;255165;1101;115471;-65
2021/08/31 15:35:37;;;;;;;1.33;1.23;;;;;;;16.58;79.15;99348.08;255226;1101;116698;-65
2021/08/31 15:40:40;;;;;;;0.98;0.98;;;;;;;16.58;78.94;99348.89;255040;1101;115459;-64
2021/08/31 15:45:42;;;;;;;1.30;1.20;;;;;;;16.51;78.89;99356.48;254068;1102;115409;-64
2021/08/31 15:50:45;;;;;;;2.35;2.15;;;;;;;16.48;79.14;99359.77;255022;1104;115372;-65
2021/08/31 15:55:47;;;;;;;1.70;1.33;;;;;;;16.46;79.23;99364.63;254109;1097;115484;-65
2021/08/31 16:00:51;;;;;;;1.58;1.18;;;;;;;16.43;79.24;99359.80;254172;1104;114945;-66
2021/08/31 16:05:55;;;;;;;1.48;1.38;;;;;;;16.38;79.41;99370.59;254744;1102;116078;-64
2021/08/31 16:10:59;;;;;;;1.00;1.00;;;;;;;16.34;79.42;99370.36;254406;1101;115847;-64
2021/08/31 16:16:06;;;;;;;3.27;1.37;;;;;;;16.31;79.51;99378.98;254237;1102;116896;-65
2021/08/31 16:21:11;;;;;;;2.98;1.98;;;;;;;16.23;79.32;99381.45;254096;1096;116090;-66
2021/08/31 16:26:14;;;;;;;1.88;1.70;;;;;;;16.12;79.35;99380.75;254368;1101;117352;-65
2021/08/31 16:31:20;;;;;;;2.33;1.75;;;;;;;16.05;79.73;99388.31;254102;1097;115838;-65
2021/08/31 16:36:23;;;;;;;2.35;1.45;;;;;;;16.02;79.66;99380.80;255159;1102;117041;-67
2021/08/31 16:41:29;;;;;;;2.13;1.30;;;;;;;15.97;79.53;99391.58;255460;1102;115563;-69
2021/08/31 16:46:32;;;;;;;3.95;1.45;;;;;;;15.92;79.56;99396.98;254223;1104;116103;-68
2021/08/31 16:51:35;;;;;;;1.80;1.70;;;;;;;15.90;79.84;99401.86;254531;1101;116351;-68
2021/08/31 16:56:38;;;;;;;4.75;1.28;;;;;;;15.88;79.64;99409.40;254324;1101;115444;-68
2021/08/31 17:01:40;;;;;;;3.55;1.98;;;;;;;15.88;79.86;99412.09;256100;1101;115902;-68
2021/08/31 17:06:44;;;;;;;3.08;1.83;;;;;;;15.87;80.11;99424.72;257049;1102;115204;-65
2021/08/31 17:11:47;;;;;;;4.60;2.40;;;;;;;15.85;79.76;99426.08;254988;1103;115184;-64
2021/08/31 17:16:50;;;;;;;3.43;1.78;;;;;;;15.85;79.94;99434.95;255336;1101;115117;-67
2021/08/31 17:21:53;;;;;;;3.30;2.43;;;;;;;15.85;79.70;99436.83;254863;1102;115646;-67
2021/08/31 17:26:56;;;;;;;3.33;2.47;;;;;;;15.76;79.66;99448.15;256041;1101;115887;-65
2021/08/31 17:32:03;;;;;;;4.50;3.70;;;;;;;15.72;79.79;99451.66;254108;1101;115340;-66
2021/08/31 17:37:07;;;;;;;3.68;3.38;;;;;;;15.64;79.56;99458.39;254857;1096;115882;-65
2021/08/31 17:42:12;;;;;;;3.70;3.45;;;;;;;15.60;79.78;99468.08;255429;1101;115563;-65
2021/08/31 17:47:15;;;;;;;4.23;3.43;;;;;;;15.59;80.08;99479.94;254212;1104;119018;-67
2021/08/31 17:52:21;;;;;;;4.33;3.93;;;;;;;15.54;80.14;99474.54;254629;1103;115275;-66
2021/08/31 17:57:26;;;;;;;5.13;4.38;;;;;;;15.49;80.10;99488.78;254644;1102;115868;-66
2021/08/31 18:02:31;;;;;;;5.30;4.25;;;;;;;15.51;80.07;99493.89;254506;1094;115325;-66
2021/08/31 18:07:35;;;;;;;5.80;4.83;;;;;;;15.49;80.21;99490.67;255224;1103;115468;-67
2021/08/31 18:12:40;;;;;;;10.10;5.33;;;;;;;15.45;80.31;99503.03;254503;1104;115591;-64
2021/08/31 18:17:43;;;;;;;6.45;5.85;;;;;;;15.44;80.56;99507.59;254521;1103;117073;-66
2021/08/31 18:22:48;;;;;;;6.73;5.63;;;;;;;15.40;80.47;99519.16;254179;1101;115511;-66
2021/08/31 18:27:53;;;;;;;6.03;3.83;;;;;;;15.37;80.33;99515.13;256031;1104;115464;-66
2021/08/31 18:32:56;;;;;;;3.60;3.18;;;;;;;15.31;80.24;99529.63;255072;1102;115788;-64
2021/08/31 18:37:59;;;;;;;3.85;3.40;;;;;;;15.18;80.38;99532.88;255206;1103;117066;-67
2021/08/31 18:43:06;;;;;;;4.45;4.00;;;;;;;15.13;80.78;99533.69;254769;1102;116482;-66
2021/08/31 18:48:11;;;;;;;3.23;2.85;;;;;;;15.15;80.88;99539.59;256114;1102;116212;-67
2021/08/31 18:53:14;;;;;;;4.80;3.60;;;;;;;15.10;80.81;99538.78;255995;1103;116982;-64
2021/08/31 18:58:18;;;;;;;4.50;3.18;;;;;;;15.09;81.39;99550.59;256722;1096;115980;-65
2021/08/31 19:03:22;;;;;;;4.20;3.60;;;;;;;15.11;81.03;99548.45;257243;1101;116525;-67
2021/08/31 19:08:25;;;;;;;2.67;2.47;;;;;;;15.13;81.57;99559.72;256287;1097;116405;-66
2021/08/31 19:13:30;;;;;;;4.28;3.33;;;;;;;15.16;81.67;99556.51;254299;1101;114938;-67
2021/08/31 19:18:34;;;;;;;4.10;1.90;;;;;;;15.13;81.11;99555.16;255063;1101;117501;-66
2021/08/31 19:23:37;;;;;;;3.73;2.85;;;;;;;15.08;81.32;99560.53;255512;1102;116462;-67
2021/08/31 19:28:41;;;;;;;2.63;2.38;;;;;;;15.07;81.28;99553.55;255035;1097;115683;-66
2021/08/31 19:33:44;;;;;;;1.88;1.48;;;;;;;15.05;81.80;99553.01;254214;1104;115428;-67
2021/08/31 19:38:47;;;;;;;1.75;1.30;;;;;;;15.02;81.33;99556.22;256056;1104;115121;-66
2021/08/31 19:43:53;;;;;;;1.25;1.15;;;;;;;15.01;81.30;99561.86;254925;1102;114849;-66
2021/08/31 19:48:57;;;;;;;0.90;0.90;;;;;;;14.99;81.67;99562.13;254829;1104;115252;-66
2021/08/31 19:54:00;;;;;;;1.53;1.43;;;;;;;14.98;81.58;99570.47;254597;1104;116402;-67
2021/08/31 19:59:06;;;;;;;1.38;0.83;;;;;;;14.95;81.87;99566.44;255080;1102;114650;-67
2021/08/31 20:04:09;;;;;;;1.00;1.00;;;;;;;14.95;81.73;99569.13;254926;1104;115195;-68
2021/08/31 20:09:13;;;;;;;0.80;0.80;;;;;;;14.96;81.69;99568.05;254385;1104;115782;-66
2021/08/31 20:14:16;;;;;;;2.88;1.20;;;;;;;14.93;81.63;99581.20;254425;1103;115539;-67
2021/08/31 20:19:19;;;;;;;1.40;1.28;;;;;;;14.95;82.22;99579.05;254819;1104;115285;-66
2021/08/31 20:24:25;;;;;;;1.18;1.08;;;;;;;14.93;81.82;99579.32;254413;1104;115812;-66
2021/08/31 20:29:27;;;;;;;2.00;1.53;;;;;;;14.85;81.80;99587.89;255103;1104;115986;-67
2021/08/31 20:34:30;;;;;;;1.65;1.55;;;;;;;14.81;82.28;99597.54;254272;1097;116411;-66
2021/08/31 20:39:34;;;;;;;4.53;2.60;;;;;;;14.77;82.15;99605.31;254801;1096;116663;-67
2021/08/31 20:44:38;;;;;;;3.08;2.78;;;;;;;14.74;82.44;99605.03;255318;1104;115736;-67
2021/08/31 20:49:42;;;;;;;5.93;4.05;;;;;;;14.68;82.23;99619.50;255246;1096;115648;-66
2021/08/31 20:54:46;;;;;;;7.40;4.68;;;;;;;14.60;81.97;99611.98;254202;1102;115836;-66
2021/08/31 20:59:49;;;;;;;5.83;4.37;;;;;;;14.54;82.30;99621.08;254273;1104;115903;-64
2021/08/31 21:04:53;;;;;;;4.48;3.58;;;;;;;14.56;82.52;99624.31;257313;1103;116688;-65
2021/08/31 21:10:01;;;;;;;3.58;3.28;;;;;;;14.58;82.27;99624.86;255561;1102;116482;-66
2021/08/31 21:15:05;;;;;;;3.13;2.83;;;;;;;14.62;82.16;99617.89;257297;1103;117156;-66
2021/08/31 21:20:10;;;;;;;5.05;3.90;;;;;;;14.62;82.44;99626.75;257369;1104;116814;-66
2021/08/31 21:25:13;;;;;;;5.68;3.98;;;;;;;14.61;82.40;99637.74;255332;1102;119941;-66
2021/08/31 21:30:19;;;;;;;6.48;5.55;;;;;;;14.61;82.12;99645.79;254457;1102;115695;-69
2021/08/31 21:35:24;;;;;;;5.93;4.38;;;;;;;14.60;82.45;99647.67;253997;1104;116388;-67
2021/08/31 21:40:27;;;;;;;6.27;5.07;;;;;;;14.60;82.62;99649.55;254329;1103;116482;-68
2021/08/31 21:45:31;;;;;;;11.25;6.48;;;;;;;14.56;82.29;99645.77;254160;1104;116861;-68
2021/08/31 21:50:35;;;;;;;6.80;5.40;;;;;;;14.51;82.31;99651.91;253978;1102;116050;-66
2021/08/31 21:55:38;;;;;;;7.70;5.25;;;;;;;14.45;82.48;99661.81;254033;1102;116156;-66
2021/08/31 22:00:42;;;;;;;5.27;4.77;;;;;;;14.40;82.34;99664.44;254303;1096;115989;-67
2021/08/31 22:05:45;;;;;;;9.97;6.03;;;;;;;14.38;82.54;99673.80;254624;1104;116797;-65
2021/08/31 22:10:49;;;;;;;8.70;6.03;;;;;;;14.37;82.38;99672.22;254466;1102;116246;-65
2021/08/31 22:15:52;;;;;;;5.55;4.70;;;;;;;14.32;82.42;99678.36;254773;1102;115816;-68
2021/08/31 22:20:55;;;;;;;5.25;4.73;;;;;;;14.25;82.64;99679.66;254038;1103;115683;-67
2021/08/31 22:25:58;;;;;;;6.03;4.20;;;;;;;14.21;82.67;99679.36;254098;1102;116332;-67
2021/08/31 22:31:02;;;;;;;9.57;4.30;;;;;;;14.16;82.54;99684.69;254376;1097;117006;-67
2021/08/31 22:36:05;;;;;;;7.67;5.10;;;;;;;14.15;83.06;99680.39;255412;1103;116957;-64
2021/08/31 22:41:09;;;;;;;7.50;5.45;;;;;;;14.14;82.86;99684.14;254346;1103;117040;-65
2021/08/31 22:46:12;;;;;;;8.68;6.78;;;;;;;14.14;83.24;99690.31;255466;1101;116873;-68
2021/08/31 22:51:15;;;;;;;8.80;5.88;;;;;;;14.11;83.04;99692.70;254839;1097;115268;-67
2021/08/31 22:56:18;;;;;;;4.90;4.28;;;;;;;14.06;83.04;99698.05;256275;1101;115783;-65
2021/08/31 23:01:20;;;;;;;9.20;6.20;;;;;;;14.04;83.22;99700.98;256779;1102;115306;-65
2021/08/31 23:06:23;;;;;;;10.90;5.83;;;;;;;14.04;82.79;99697.50;256796;1101;114637;-64
2021/08/31 23:11:26;;;;;;;7.83;5.17;;;;;;;14.07;82.98;99707.67;257119;1102;114864;-65
2021/08/31 23:16:31;;;;;;;6.55;5.15;;;;;;;14.05;82.68;99704.48;256617;1101;115425;-65